Haydock Park, United Kingdom
Current Conditions -  °F | °C
As of 7:50 AM on Saturday 20 Dec 2014 (Local Time) from EGGP Reporting Station
Rain Showers Rain Showers  
Wind Chill: 37°   Ceiling: Unl
Heat Index: 46°   Visibility: 6mi
Dew Point: 41°   Wind: 33mph
Humidity: 81%   Direction: 280°W
Pressure: 30.12"   Gusts: 45mph
Location:  53.47°N, 2.62°W
Report Text: EGGP 200750Z 28029G39KT 9999 -SHRA FEW023 SCT035 08/05 Q1020
Loading
Personal Weather Stations






























Interactive Weather Map New forecast layout! Learn more

10-Day Weather Forecast

Advertisements
Track Severe Weather on mobile